Longmont, Colorado
Current Conditions -  °F | °C
As of 7:15 PM on Thursday 18 Dec 2014 (Local Time) from KLMO Reporting Station
Clear Clear  
Wind Chill: 24°   Ceiling: Unl
Heat Index: 30°   Visibility: 10mi
Dew Point: 25°   Wind: 6mph
Humidity: 81%   Direction: 280°W
Pressure: 30.09"   Gusts: NA
Location:  40.16°N, 105.1°W
Report Text: KLMO 190215Z AUTO 28005KT 10SM CLR M01/M04 A3009 RMK AO2 T10111040
Loading
Personal Weather Stations






























Interactive Weather Map New forecast layout! Learn more

10-Day Weather Forecast

Advertisements
Track Severe Weather on mobile